createdAt,value
2018-03-26T00:01:17.374Z,53.95
2018-03-26T00:03:54.767Z,53.42
2018-03-26T00:06:32.743Z,52.72
2018-03-26T00:09:10.680Z,56.22
2018-03-26T00:11:47.159Z,52.60
2018-03-26T00:14:22.579Z,55.67
2018-03-26T00:16:58.136Z,54.97
2018-03-26T00:19:34.397Z,55.47
2018-03-26T00:22:10.429Z,55.38
2018-03-26T00:24:49.498Z,53.53
2018-03-26T00:27:28.732Z,54.95
2018-03-26T00:30:06.326Z,57.78
2018-03-26T00:32:45.620Z,54.08
2018-03-26T00:35:21.186Z,55.45
2018-03-26T00:37:58.066Z,53.13
2018-03-26T00:40:34.107Z,56.22
2018-03-26T00:43:10.115Z,53.33
2018-03-26T00:45:46.911Z,54.83
2018-03-26T00:48:22.769Z,53.75
2018-03-26T00:50:59.023Z,55.42
2018-03-26T00:53:46.634Z,51.42
2018-03-26T00:56:23.284Z,54.90
2018-03-26T00:59:01.830Z,54.03
2018-03-26T01:01:37.880Z,53.28
2018-03-26T01:04:12.318Z,52.50
2018-03-26T01:06:49.517Z,48.67
2018-03-26T01:09:27.260Z,50.03
2018-03-26T01:12:02.741Z,48.15
2018-03-26T01:14:39.158Z,49.08
2018-03-26T01:17:18.091Z,45.60
2018-03-26T01:19:53.546Z,45.25
2018-03-26T01:22:30.923Z,43.63
2018-03-26T01:25:13.329Z,42.35
2018-03-26T01:27:51.316Z,40.60
2018-03-26T01:30:26.751Z,42.33
2018-03-26T01:33:02.740Z,38.20
2018-03-26T01:35:41.498Z,36.15
2018-03-26T01:38:17.958Z,34.67
2018-03-26T01:40:54.944Z,35.25
2018-03-26T01:43:32.561Z,34.40
2018-03-26T01:46:09.908Z,34.00
2018-03-26T01:48:45.919Z,34.97
2018-03-26T01:51:21.643Z,36.20
2018-03-26T01:53:58.821Z,32.78
2018-03-26T01:56:33.952Z,35.03
2018-03-26T01:59:10.634Z,35.70
2018-03-26T02:01:50.227Z,34.40
2018-03-26T02:04:27.653Z,35.05
2018-03-26T02:07:04.160Z,35.83
2018-03-26T02:09:46.582Z,36.00
2018-03-26T02:12:22.098Z,39.63
2018-03-26T02:14:59.529Z,34.72
2018-03-26T02:17:35.736Z,38.63
2018-03-26T02:20:11.723Z,37.35
2018-03-26T02:22:42.868Z,38.67
2018-03-26T02:25:19.408Z,39.40
2018-03-26T02:27:54.434Z,39.08
2018-03-26T02:30:31.131Z,39.55
2018-03-26T02:33:07.578Z,40.63
2018-03-26T02:35:42.949Z,40.03
2018-03-26T02:38:22.143Z,39.78
2018-03-26T02:40:58.820Z,37.70
2018-03-26T02:43:36.170Z,41.60
2018-03-26T02:46:12.830Z,40.70
2018-03-26T02:48:54.942Z,41.78
2018-03-26T02:51:30.543Z,41.35
2018-03-26T02:54:06.596Z,45.15
2018-03-26T02:56:42.147Z,41.28
2018-03-26T02:59:18.916Z,41.00
2018-03-26T03:01:54.626Z,45.45
2018-03-26T03:04:34.695Z,47.40
2018-03-26T03:07:12.669Z,46.67
2018-03-26T03:09:48.251Z,44.65
2018-03-26T03:12:25.400Z,47.50
2018-03-26T03:15:01.803Z,45.20
2018-03-26T03:17:38.224Z,48.53
2018-03-26T03:20:21.903Z,46.72
2018-03-26T03:22:58.763Z,48.50
2018-03-26T03:25:34.362Z,49.33
2018-03-26T03:28:12.618Z,50.03
2018-03-26T03:30:51.397Z,48.05
2018-03-26T03:33:28.025Z,49.28
2018-03-26T03:36:04.844Z,51.45
2018-03-26T03:38:36.784Z,50.67
2018-03-26T03:41:13.800Z,52.62
2018-03-26T03:43:52.235Z,49.15
2018-03-26T03:46:28.315Z,48.45
2018-03-26T03:49:09.917Z,49.65
2018-03-26T03:51:46.105Z,50.03
2018-03-26T03:54:22.119Z,51.08
2018-03-26T03:56:58.279Z,50.90
2018-03-26T03:59:34.899Z,52.60
2018-03-26T04:02:12.316Z,52.85
2018-03-26T04:04:49.136Z,54.42
2018-03-26T04:07:31.801Z,52.97
2018-03-26T04:10:07.290Z,53.15
2018-03-26T04:12:44.256Z,57.80
2018-03-26T04:15:19.744Z,54.10
2018-03-26T04:17:56.518Z,54.50
2018-03-26T04:20:32.986Z,54.33
2018-03-26T04:23:08.608Z,52.47
2018-03-26T04:25:45.632Z,57.33
2018-03-26T04:28:22.779Z,55.72
2018-03-26T04:30:59.531Z,54.83
2018-03-26T04:33:36.491Z,53.13
2018-03-26T04:36:11.572Z,53.95
2018-03-26T04:38:47.073Z,54.63
2018-03-26T04:41:24.721Z,51.83
2018-03-26T04:44:01.020Z,54.60
2018-03-26T04:46:36.970Z,55.08
2018-03-26T04:49:12.906Z,55.85
2018-03-26T04:51:48.998Z,54.33
2018-03-26T04:54:27.233Z,55.10
2018-03-26T04:57:04.531Z,56.70
2018-03-26T04:59:43.696Z,56.75
2018-03-26T05:02:21.941Z,60.12
2018-03-26T05:05:03.853Z,58.60
2018-03-26T05:07:41.285Z,57.33
2018-03-26T05:10:19.822Z,60.15
2018-03-26T05:12:55.854Z,53.63
2018-03-26T05:15:32.332Z,57.83
2018-03-26T05:18:16.347Z,58.97
2018-03-26T05:20:55.626Z,58.97
2018-03-26T05:23:34.308Z,60.88
2018-03-26T05:26:11.837Z,64.10
2018-03-26T05:28:49.491Z,57.50
2018-03-26T05:31:26.333Z,61.13
2018-03-26T05:34:01.700Z,68.93
2018-03-26T05:36:36.891Z,61.55
2018-03-26T05:39:13.848Z,64.70
2018-03-26T05:41:49.061Z,64.78
2018-03-26T05:44:25.479Z,60.17
2018-03-26T05:47:03.722Z,60.58
2018-03-26T05:49:40.238Z,72.32
2018-03-26T05:52:17.308Z,63.30
2018-03-26T05:54:53.223Z,67.05
2018-03-26T05:57:29.010Z,64.50
2018-03-26T06:00:06.086Z,60.42
2018-03-26T06:02:43.397Z,58.75
2018-03-26T06:05:20.293Z,58.97
2018-03-26T06:07:58.658Z,62.33
2018-03-26T06:10:35.672Z,62.83
2018-03-26T06:13:12.894Z,61.90
2018-03-26T06:15:48.314Z,66.22
2018-03-26T06:18:25.008Z,59.65
2018-03-26T06:21:03.276Z,57.42
2018-03-26T06:23:39.965Z,53.05
2018-03-26T06:26:23.997Z,54.17
2018-03-26T06:28:59.791Z,51.13
2018-03-26T06:31:38.647Z,48.50
2018-03-26T06:34:14.007Z,49.83
2018-03-26T06:37:03.262Z,47.50
2018-03-26T06:39:44.844Z,48.33
2018-03-26T06:42:23.878Z,46.30
2018-03-26T06:45:04.661Z,44.05
2018-03-26T06:47:39.956Z,44.47
2018-03-26T06:50:17.086Z,42.28
2018-03-26T06:52:52.483Z,44.63
2018-03-26T06:55:28.075Z,44.20
2018-03-26T06:58:04.359Z,41.13
2018-03-26T07:00:35.286Z,44.05
2018-03-26T07:03:11.977Z,43.95
2018-03-26T07:05:49.555Z,41.25
2018-03-26T07:08:28.858Z,46.45
2018-03-26T07:11:04.227Z,42.97
2018-03-26T07:13:42.075Z,42.40
2018-03-26T07:16:18.155Z,42.20
2018-03-26T07:18:49.359Z,38.25
2018-03-26T07:21:28.087Z,39.17
2018-03-26T07:24:05.081Z,36.15
2018-03-26T07:26:41.539Z,40.40
2018-03-26T07:29:17.195Z,38.63
2018-03-26T07:31:53.124Z,37.38
2018-03-26T07:34:34.027Z,37.00
2018-03-26T07:37:11.918Z,36.42
2018-03-26T07:39:50.554Z,34.90
2018-03-26T07:42:28.890Z,37.30
2018-03-26T07:45:06.037Z,33.78
2018-03-26T07:47:49.007Z,32.53
2018-03-26T07:50:25.075Z,32.15
2018-03-26T07:53:01.651Z,31.52
2018-03-26T07:55:39.181Z,32.60
2018-03-26T07:58:15.889Z,28.87
2018-03-26T08:00:53.803Z,31.98
2018-03-26T08:03:33.030Z,30.10
2018-03-26T08:06:09.478Z,41.63
2018-03-26T08:08:45.555Z,30.52
2018-03-26T08:11:20.784Z,29.85
2018-03-26T08:13:56.430Z,31.98
2018-03-26T08:16:33.052Z,31.25
2018-03-26T08:19:08.338Z,28.73
2018-03-26T08:21:46.541Z,27.13
2018-03-26T08:24:21.749Z,24.10
2018-03-26T08:26:57.192Z,26.15
2018-03-26T08:29:34.480Z,25.23
2018-03-26T08:32:11.188Z,24.90
2018-03-26T08:34:47.916Z,22.80
2018-03-26T08:37:24.108Z,23.80
2018-03-26T08:39:58.262Z,22.05
2018-03-26T08:42:34.775Z,21.10
2018-03-26T08:45:10.493Z,20.30
2018-03-26T08:47:47.091Z,19.33
2018-03-26T08:50:26.088Z,60.57
2018-03-26T08:53:02.842Z,20.43
2018-03-26T08:55:40.189Z,21.10
2018-03-26T08:58:17.144Z,21.03
2018-03-26T09:00:53.674Z,23.33
2018-03-26T09:03:30.505Z,21.97
2018-03-26T09:06:08.882Z,20.83
2018-03-26T09:08:45.834Z,19.97
2018-03-26T09:11:22.918Z,20.30
2018-03-26T09:14:00.056Z,22.40
2018-03-26T09:16:36.703Z,20.03
2018-03-26T09:19:14.722Z,20.93
2018-03-26T09:21:51.078Z,19.70
2018-03-26T09:24:27.648Z,18.67
2018-03-26T09:27:03.291Z,17.87
2018-03-26T09:29:45.256Z,19.13
2018-03-26T09:32:15.254Z,17.60
2018-03-26T09:34:53.236Z,16.63
2018-03-26T09:37:31.128Z,15.13
2018-03-26T09:40:09.466Z,15.30
2018-03-26T09:42:47.310Z,12.40
2018-03-26T09:45:25.328Z,14.50
2018-03-26T09:48:02.318Z,12.03
2018-03-26T09:50:45.388Z,12.93
2018-03-26T09:53:20.736Z,12.63
2018-03-26T09:55:57.163Z,10.60
2018-03-26T09:58:34.215Z,11.50
2018-03-26T10:01:15.438Z,8.27
2018-03-26T10:03:51.715Z,10.90
2018-03-26T10:06:28.930Z,7.37
2018-03-26T10:09:11.914Z,10.37
2018-03-26T10:11:49.511Z,9.73
2018-03-26T10:14:25.962Z,8.80
2018-03-26T10:17:04.232Z,8.80
2018-03-26T10:19:43.090Z,9.00
2018-03-26T10:22:19.710Z,9.10
2018-03-26T10:24:56.475Z,7.30
2018-03-26T10:27:31.629Z,6.20
2018-03-26T10:30:09.103Z,6.00
2018-03-26T10:32:48.613Z,10.07
2018-03-26T10:35:26.453Z,6.60
2018-03-26T10:38:02.565Z,7.80
2018-03-26T10:40:38.310Z,8.60
2018-03-26T10:43:16.001Z,9.70
2018-03-26T10:45:55.168Z,7.47
2018-03-26T10:48:32.148Z,8.77
2018-03-26T10:51:07.732Z,11.00
2018-03-26T10:53:44.619Z,13.33
2018-03-26T10:56:22.002Z,12.10
2018-03-26T10:58:58.637Z,8.80
2018-03-26T11:01:42.114Z,9.07
2018-03-26T11:04:18.275Z,7.80
2018-03-26T11:06:56.037Z,8.73
2018-03-26T11:09:34.200Z,6.93
2018-03-26T11:12:09.802Z,7.43
2018-03-26T11:14:47.382Z,7.75
2018-03-26T11:17:19.044Z,9.43
2018-03-26T11:19:56.287Z,10.57
2018-03-26T11:22:38.106Z,6.30
2018-03-26T11:25:15.115Z,8.07
2018-03-26T11:27:50.666Z,6.93
2018-03-26T11:30:27.867Z,7.30
2018-03-26T11:33:03.530Z,7.35
2018-03-26T11:35:42.351Z,6.75
2018-03-26T11:38:18.904Z,7.15
2018-03-26T11:40:54.426Z,7.90
2018-03-26T11:43:31.342Z,7.40
2018-03-26T11:46:08.646Z,6.30
2018-03-26T11:48:45.763Z,6.53
2018-03-26T11:51:21.413Z,6.27
2018-03-26T11:53:58.640Z,8.03
2018-03-26T11:56:34.750Z,6.10
2018-03-26T11:59:12.077Z,7.37
2018-03-26T12:01:47.078Z,7.10
2018-03-26T12:04:24.408Z,7.95
2018-03-26T12:07:02.040Z,8.35
2018-03-26T12:09:39.672Z,8.17
2018-03-26T12:12:18.542Z,9.00
2018-03-26T12:14:57.564Z,8.82
2018-03-26T12:17:34.037Z,8.53
2018-03-26T12:20:21.792Z,8.47
2018-03-26T12:23:01.127Z,7.35
2018-03-26T12:25:28.944Z,8.18
2018-03-26T12:28:15.869Z,7.00
2018-03-26T12:30:46.357Z,7.32
2018-03-26T12:33:28.173Z,7.67
2018-03-26T12:36:04.977Z,8.10
2018-03-26T12:38:45.444Z,6.80
2018-03-26T12:41:24.136Z,5.70
2018-03-26T12:44:00.399Z,7.12
2018-03-26T12:46:40.960Z,5.90
2018-03-26T12:49:18.647Z,6.37
2018-03-26T12:52:05.511Z,5.97
2018-03-26T12:54:41.334Z,5.53
2018-03-26T12:57:28.387Z,5.23
2018-03-26T13:00:07.055Z,5.47
2018-03-26T13:02:45.323Z,5.60
2018-03-26T13:05:23.252Z,5.67
2018-03-26T13:08:01.192Z,5.67
2018-03-26T13:10:38.773Z,6.23
2018-03-26T13:13:16.318Z,6.47
2018-03-26T13:15:52.892Z,5.75
2018-03-26T13:18:29.952Z,6.22
2018-03-26T13:21:08.343Z,7.47
2018-03-26T13:23:43.959Z,9.70
2018-03-26T13:26:20.025Z,6.45
2018-03-26T13:28:55.552Z,9.30
2018-03-26T13:31:32.482Z,7.65
2018-03-26T13:34:09.068Z,8.23
2018-03-26T13:36:45.418Z,7.03
2018-03-26T13:39:24.666Z,7.62
2018-03-26T13:42:02.371Z,6.90
2018-03-26T13:44:38.908Z,7.78
2018-03-26T13:47:21.405Z,8.45
2018-03-26T13:50:03.199Z,8.10
2018-03-26T13:55:07.290Z,7.90
2018-03-26T13:57:45.033Z,9.27
2018-03-26T14:00:22.726Z,8.45
2018-03-26T14:03:04.645Z,8.30
2018-03-26T14:05:42.094Z,8.27
2018-03-26T14:08:23.842Z,7.35
2018-03-26T14:11:11.500Z,6.53
2018-03-26T14:17:04.292Z,8.05
2018-03-26T14:19:42.073Z,5.18
2018-03-26T14:22:20.520Z,6.35
2018-03-26T14:24:51.425Z,6.62
2018-03-26T14:27:29.465Z,7.10
2018-03-26T14:30:06.424Z,8.02
2018-03-26T14:32:43.564Z,7.87
2018-03-26T14:35:27.352Z,5.90
2018-03-26T14:38:02.942Z,6.75
2018-03-26T14:40:38.036Z,6.47
2018-03-26T14:43:17.398Z,6.97
2018-03-26T14:45:53.563Z,8.13
2018-03-26T14:48:29.804Z,8.07
2018-03-26T14:51:07.235Z,7.93
2018-03-26T14:53:45.075Z,7.30
2018-03-26T14:56:20.909Z,7.10
2018-03-26T14:58:57.654Z,6.55
2018-03-26T15:01:34.488Z,7.82
2018-03-26T15:04:11.451Z,7.47
2018-03-26T15:06:50.048Z,6.57
2018-03-26T15:09:25.846Z,8.35
2018-03-26T15:12:02.608Z,6.35
2018-03-26T15:14:41.465Z,7.22
2018-03-26T15:17:17.442Z,4.50
2018-03-26T15:19:55.825Z,6.90
2018-03-26T15:22:31.689Z,7.95
2018-03-26T15:25:08.482Z,8.45
2018-03-26T15:27:47.298Z,6.50
2018-03-26T15:30:24.580Z,6.35
2018-03-26T15:33:01.541Z,6.75
2018-03-26T15:35:37.514Z,13.75
2018-03-26T15:38:14.188Z,7.20
2018-03-26T15:40:50.170Z,7.07
2018-03-26T15:43:27.284Z,9.95
2018-03-26T15:46:03.171Z,18.15
2018-03-26T15:48:40.769Z,12.73
2018-03-26T15:51:22.430Z,19.67
2018-03-26T15:53:57.798Z,9.68
2018-03-26T15:56:34.740Z,7.25
2018-03-26T15:59:10.121Z,6.50
2018-03-26T16:01:47.887Z,7.22
2018-03-26T16:04:23.756Z,7.03
2018-03-26T16:06:58.999Z,7.30
2018-03-26T16:09:36.800Z,6.90
2018-03-26T16:12:13.714Z,7.40
2018-03-26T16:14:51.719Z,6.35
2018-03-26T16:17:29.626Z,6.60
2018-03-26T16:20:05.358Z,4.93
2018-03-26T16:22:41.630Z,5.70
2018-03-26T16:25:18.555Z,7.65
2018-03-26T16:27:54.296Z,7.85
2018-03-26T16:30:32.447Z,7.55
2018-03-26T16:33:09.575Z,6.85
2018-03-26T16:35:46.027Z,7.10
2018-03-26T16:38:22.464Z,14.80
2018-03-26T16:40:58.628Z,10.30
2018-03-26T16:43:38.709Z,6.15
2018-03-26T16:46:16.691Z,7.85
2018-03-26T16:48:54.565Z,6.40
2018-03-26T16:51:31.822Z,13.30
2018-03-26T16:54:08.641Z,11.40
2018-03-26T16:56:43.471Z,7.30
2018-03-26T16:59:20.215Z,7.07
2018-03-26T17:01:56.306Z,5.47
2018-03-26T17:04:31.487Z,7.47
2018-03-26T17:07:08.836Z,6.80
2018-03-26T17:09:46.182Z,8.50
2018-03-26T17:12:23.793Z,6.85
2018-03-26T17:14:59.367Z,7.15
2018-03-26T17:17:36.860Z,7.65
2018-03-26T17:20:14.275Z,6.30
2018-03-26T17:22:50.000Z,7.90
2018-03-26T17:25:28.213Z,8.20
2018-03-26T17:28:06.765Z,7.75
2018-03-26T17:30:46.493Z,8.20
2018-03-26T17:33:23.336Z,6.95
2018-03-26T17:35:58.634Z,7.87
2018-03-26T17:38:36.685Z,7.95
2018-03-26T17:41:13.538Z,7.65
2018-03-26T17:43:55.668Z,8.90
2018-03-26T17:46:32.917Z,8.30
2018-03-26T17:49:11.275Z,7.78
2018-03-26T17:51:47.989Z,7.00
2018-03-26T17:54:27.115Z,7.82
2018-03-26T17:57:04.877Z,7.90
2018-03-26T17:59:42.713Z,8.43
2018-03-26T18:02:20.194Z,8.10
2018-03-26T18:04:57.699Z,7.75
2018-03-26T18:07:34.534Z,7.37
2018-03-26T18:10:12.837Z,8.05
2018-03-26T18:12:48.628Z,7.90
2018-03-26T18:15:31.288Z,7.85
2018-03-26T18:18:06.453Z,7.80
2018-03-26T18:20:43.254Z,7.53
2018-03-26T18:23:19.425Z,7.85
2018-03-26T18:25:57.899Z,7.97
2018-03-26T18:28:34.308Z,8.13
2018-03-26T18:31:10.692Z,8.73
2018-03-26T18:33:46.209Z,9.80
2018-03-26T18:36:24.287Z,10.60
2018-03-26T18:39:02.195Z,9.00
2018-03-26T18:41:39.316Z,10.73
2018-03-26T18:44:17.661Z,11.35
2018-03-26T18:46:54.602Z,12.27
2018-03-26T18:49:30.498Z,10.98
2018-03-26T18:52:08.090Z,10.93
2018-03-26T18:54:46.889Z,11.70
2018-03-26T18:57:22.096Z,11.12
2018-03-26T18:59:59.911Z,10.80
2018-03-26T19:02:37.673Z,11.52
2018-03-26T19:05:14.842Z,13.25
2018-03-26T19:07:51.192Z,13.50
2018-03-26T19:10:26.680Z,15.05
2018-03-26T19:13:02.060Z,14.95
2018-03-26T19:15:41.073Z,15.65
2018-03-26T19:18:17.604Z,17.12
2018-03-26T19:20:56.637Z,15.73
2018-03-26T19:23:32.711Z,16.02
2018-03-26T19:26:08.518Z,16.15
2018-03-26T19:28:50.082Z,17.70
2018-03-26T19:31:28.670Z,18.10
2018-03-26T19:34:05.427Z,16.50
2018-03-26T19:36:47.278Z,17.40
2018-03-26T19:39:30.556Z,17.75
2018-03-26T19:42:02.051Z,16.87
2018-03-26T19:44:39.929Z,17.83
2018-03-26T19:47:17.517Z,17.42
2018-03-26T19:49:55.413Z,16.52
2018-03-26T19:52:33.992Z,16.77
2018-03-26T19:55:09.580Z,15.63
2018-03-26T19:57:46.287Z,17.37
2018-03-26T20:00:23.123Z,16.23
2018-03-26T20:02:59.167Z,17.25
2018-03-26T20:05:36.184Z,17.17
2018-03-26T20:08:15.129Z,19.77
2018-03-26T20:10:50.565Z,18.83
2018-03-26T20:13:28.659Z,19.90
2018-03-26T20:16:04.762Z,18.00
2018-03-26T20:18:41.920Z,17.12
2018-03-26T20:21:19.203Z,18.95
2018-03-26T20:23:56.555Z,18.87
2018-03-26T20:26:37.998Z,20.00
2018-03-26T20:29:14.123Z,17.92
2018-03-26T20:31:51.335Z,18.75
2018-03-26T20:34:28.215Z,17.85
2018-03-26T20:37:04.021Z,18.40
2018-03-26T20:39:35.788Z,17.95
2018-03-26T20:42:12.042Z,18.50
2018-03-26T20:44:48.594Z,17.45
2018-03-26T20:47:26.011Z,19.15
2018-03-26T20:50:03.558Z,18.30
2018-03-26T20:52:38.436Z,19.52
2018-03-26T20:55:14.825Z,20.27
2018-03-26T20:57:53.358Z,20.60
2018-03-26T21:00:28.640Z,19.50
2018-03-26T21:03:05.109Z,21.37
2018-03-26T21:05:47.148Z,21.08
2018-03-26T21:08:24.453Z,22.45
2018-03-26T21:11:06.768Z,21.05
2018-03-26T21:13:44.722Z,21.20
2018-03-26T21:16:26.158Z,21.83
2018-03-26T21:19:01.339Z,18.62
2018-03-26T21:21:39.313Z,21.62
2018-03-26T21:24:14.709Z,20.90
2018-03-26T21:26:50.200Z,22.73
2018-03-26T21:29:25.812Z,22.85
2018-03-26T21:32:02.883Z,24.15
2018-03-26T21:34:42.771Z,24.83
2018-03-26T21:37:19.348Z,27.35
2018-03-26T21:39:55.215Z,25.73
2018-03-26T21:42:33.067Z,27.75
2018-03-26T21:45:08.510Z,26.60
2018-03-26T21:47:43.977Z,28.67
2018-03-26T21:50:21.265Z,28.35
2018-03-26T21:52:59.178Z,28.48
2018-03-26T21:55:35.444Z,28.30
2018-03-26T21:58:13.038Z,32.55
2018-03-26T22:00:50.600Z,29.73
2018-03-26T22:03:26.310Z,30.08
2018-03-26T22:06:03.624Z,31.50
2018-03-26T22:08:45.661Z,31.30
2018-03-26T22:11:22.660Z,31.80
2018-03-26T22:13:59.642Z,34.90
2018-03-26T22:16:36.653Z,31.05
2018-03-26T22:19:13.157Z,32.80
2018-03-26T22:21:49.171Z,33.13
2018-03-26T22:24:25.424Z,33.55
2018-03-26T22:27:01.154Z,33.63
2018-03-26T22:29:37.244Z,31.90
2018-03-26T22:32:17.065Z,32.50
2018-03-26T22:34:53.961Z,31.17
2018-03-26T22:37:31.106Z,31.87
2018-03-26T22:40:06.845Z,32.60
2018-03-26T22:42:42.373Z,32.00
2018-03-26T22:45:18.171Z,31.45
2018-03-26T22:47:55.222Z,30.98
2018-03-26T22:50:37.030Z,31.77
2018-03-26T22:53:13.838Z,33.67
2018-03-26T22:55:52.786Z,33.42
2018-03-26T22:58:28.908Z,30.42
2018-03-26T23:01:05.120Z,32.30
2018-03-26T23:03:40.804Z,31.40
2018-03-26T23:06:16.079Z,30.50
2018-03-26T23:08:51.591Z,28.98
2018-03-26T23:11:30.221Z,29.87
2018-03-26T23:14:00.520Z,31.50
2018-03-26T23:16:37.353Z,31.48
2018-03-26T23:19:15.161Z,29.12
2018-03-26T23:21:53.843Z,32.00
2018-03-26T23:24:29.644Z,30.58
2018-03-26T23:27:06.260Z,29.67
2018-03-26T23:29:44.986Z,31.73
2018-03-26T23:32:21.793Z,32.95
2018-03-26T23:34:58.970Z,32.85
2018-03-26T23:37:39.147Z,32.05
2018-03-26T23:40:22.162Z,30.55
2018-03-26T23:43:00.299Z,32.60
2018-03-26T23:45:35.732Z,33.40
2018-03-26T23:48:11.119Z,33.10
2018-03-26T23:50:47.537Z,31.98
2018-03-26T23:53:22.937Z,32.55
2018-03-26T23:56:00.877Z,33.00
2018-03-26T23:58:38.001Z,31.55
